Time;durP1;ratioP1;P1;durP2;ratioP2;P2;SDS_P1;SDS_P2;PMS_P1;PMS_P2;Temp;Humidity;BMP_temperature;BMP_pressure;BME280_temperature;BME280_humidity;BME280_pressure;Samples;Min_cycle;Max_cycle;Signal;HPM_P1;HPM_P2
2022/02/01 00:00:18;;;;;;;13.73;5.80;;;2.60;99.90;;;;;;5072863;28;20458;-84
2022/02/01 00:02:49;;;;;;;16.53;6.73;;;2.60;99.90;;;;;;5072430;28;20407;-83
2022/02/01 00:05:28;;;;;;;14.47;7.27;;;2.60;99.90;;;;;;5072413;28;20798;-83
2022/02/01 00:08:09;;;;;;;17.47;6.90;;;2.60;99.90;;;;;;5069204;28;20414;-84
2022/02/01 00:10:57;;;;;;;13.50;5.93;;;2.60;99.90;;;;;;5069008;28;20418;-83
2022/02/01 00:13:48;;;;;;;11.80;6.40;;;2.70;99.90;;;;;;5071791;28;20410;-84
2022/02/01 00:19:40;;;;;;;14.33;4.87;;;2.70;99.90;;;;;;5037787;28;20403;-83
2022/02/01 00:35:44;;;;;;;18.00;7.60;;;3.00;99.90;;;;;;5071842;28;20411;-85
2022/02/01 00:40:37;;;;;;;17.63;5.70;;;3.10;99.90;;;;;;5071460;28;20423;-86
2022/02/01 00:43:03;;;;;;;19.90;6.70;;;3.10;99.90;;;;;;5070188;28;20592;-85
2022/02/01 00:45:29;;;;;;;11.03;6.30;;;2.90;99.90;;;;;;5070239;28;20534;-85
2022/02/01 00:47:54;;;;;;;16.37;5.70;;;2.90;99.90;;;;;;5071478;28;20458;-84
2022/02/01 00:50:21;;;;;;;14.33;6.30;;;2.80;99.90;;;;;;5071251;28;20204;-85
2022/02/01 00:52:46;;;;;;;12.67;6.10;;;2.80;99.90;;;;;;5071351;28;20411;-85
2022/02/01 00:55:12;;;;;;;15.53;6.80;;;2.80;99.90;;;;;;5071216;28;20180;-86
2022/02/01 00:57:38;;;;;;;15.03;7.43;;;2.70;99.90;;;;;;5071379;28;20165;-86
2022/02/01 01:00:06;;;;;;;13.53;5.90;;;2.80;99.90;;;;;;5071186;28;20835;-85
2022/02/01 01:02:32;;;;;;;13.30;7.27;;;2.80;99.90;;;;;;5069603;28;20173;-85
2022/02/01 01:04:57;;;;;;;11.40;6.20;;;2.80;99.90;;;;;;5070977;28;20464;-86
2022/02/01 01:07:23;;;;;;;12.90;6.13;;;2.80;99.90;;;;;;5071230;28;20630;-86
2022/02/01 01:09:49;;;;;;;12.67;6.10;;;2.80;99.90;;;;;;5070250;28;20183;-85
2022/02/01 01:12:16;;;;;;;17.47;6.63;;;2.80;99.90;;;;;;5070844;28;20169;-86
2022/02/01 01:44:31;;;;;;;15.00;4.60;;;2.90;99.90;;;;;;5071151;28;20982;-86
2022/02/01 01:55:15;;;;;;;7.57;3.43;;;3.00;99.90;;;;;;5071453;28;20414;-87
2022/02/01 01:57:40;;;;;;;8.57;2.73;;;3.00;99.90;;;;;;5070311;28;20506;-85
2022/02/01 02:00:12;;;;;;;9.17;3.80;;;3.00;99.90;;;;;;5071551;28;20446;-84
2022/02/01 02:02:38;;;;;;;5.00;2.40;;;3.00;99.90;;;;;;5071456;28;20411;-85
2022/02/01 02:05:04;;;;;;;10.73;2.50;;;3.00;99.90;;;;;;5071382;28;20497;-84
2022/02/01 02:07:30;;;;;;;8.40;2.87;;;3.00;99.90;;;;;;5071563;28;20486;-85
2022/02/01 02:09:56;;;;;;;7.67;3.63;;;3.00;99.90;;;;;;5070866;28;20942;-85
2022/02/01 02:12:49;;;;;;;7.00;3.23;;;2.90;99.90;;;;;;5070087;28;20408;-82
2022/02/01 02:15:07;;;;;;;9.00;1.83;;;2.80;99.90;;;;;;5071181;28;20651;-82
2022/02/01 02:17:33;;;;;;;7.30;2.10;;;2.80;99.90;;;;;;5071570;28;20419;-86
2022/02/01 02:19:58;;;;;;;10.63;3.10;;;2.70;99.90;;;;;;5070262;28;21151;-87
2022/02/01 02:22:24;;;;;;;14.40;2.70;;;2.60;99.90;;;;;;5071928;28;20230;-85
2022/02/01 02:24:49;;;;;;;11.50;3.10;;;2.60;99.90;;;;;;5071233;28;20201;-87
2022/02/01 02:27:15;;;;;;;8.03;2.50;;;2.50;99.90;;;;;;5071441;28;20180;-86
2022/02/01 02:29:41;;;;;;;12.23;2.93;;;2.50;99.90;;;;;;5071197;28;20173;-85
2022/02/01 02:32:07;;;;;;;5.17;1.20;;;2.50;99.90;;;;;;5071437;28;20181;-87
2022/02/01 02:34:33;;;;;;;4.63;1.10;;;2.50;99.90;;;;;;5071447;28;20252;-88
2022/02/01 02:37:00;;;;;;;6.63;1.60;;;2.50;99.90;;;;;;5070080;28;20566;-87
2022/02/01 02:39:36;;;;;;;8.73;1.57;;;2.40;99.90;;;;;;5071160;28;20168;-85
2022/02/01 02:42:12;;;;;;;6.13;1.67;;;2.40;99.90;;;;;;5071286;28;20456;-86
2022/02/01 02:47:24;;;;;;;10.03;2.10;;;2.30;99.90;;;;;;5071256;28;20422;-86
2022/02/01 02:49:50;;;;;;;6.37;0.97;;;2.30;99.90;;;;;;5071119;28;20792;-85
2022/02/01 02:52:15;;;;;;;9.63;2.07;;;2.30;99.90;;;;;;5071209;28;20182;-86
2022/02/01 02:54:41;;;;;;;7.13;1.57;;;2.30;99.90;;;;;;5069923;28;20173;-87
2022/02/01 02:57:08;;;;;;;8.93;1.00;;;2.40;99.90;;;;;;5074385;28;20214;-86
2022/02/01 02:59:34;;;;;;;3.20;0.97;;;2.30;99.90;;;;;;5076292;28;20177;-86
2022/02/01 03:02:00;;;;;;;7.07;1.50;;;2.40;99.90;;;;;;5075297;28;20423;-88
2022/02/01 03:04:28;;;;;;;2.37;1.33;;;2.40;99.90;;;;;;5075905;28;20476;-85
2022/02/01 03:06:54;;;;;;;10.10;1.17;;;2.50;99.90;;;;;;5076088;28;20473;-84
2022/02/01 03:09:22;;;;;;;6.80;1.53;;;2.60;99.90;;;;;;5075497;28;20416;-86
2022/02/01 03:11:50;;;;;;;14.30;1.87;;;2.60;99.90;;;;;;5075884;28;20424;-87
2022/02/01 03:14:23;;;;;;;7.27;1.67;;;2.70;99.90;;;;;;5075996;28;20419;-86
2022/02/01 03:22:02;;;;;;;4.10;1.07;;;2.80;99.90;;;;;;5075819;28;20494;-86
2022/02/01 03:24:28;;;;;;;13.83;2.63;;;2.80;99.90;;;;;;5075182;28;20502;-86
2022/02/01 03:26:53;;;;;;;7.07;1.60;;;2.80;99.90;;;;;;5075608;28;20177;-85
2022/02/01 03:29:19;;;;;;;6.50;1.23;;;2.90;99.90;;;;;;5075870;28;20238;-86
2022/02/01 03:31:44;;;;;;;13.33;1.97;;;2.90;99.90;;;;;;5075557;28;20217;-85
2022/02/01 03:34:10;;;;;;;13.20;2.97;;;2.90;99.90;;;;;;5075552;28;20535;-85
2022/02/01 03:36:35;;;;;;;5.13;1.33;;;3.00;99.90;;;;;;5075378;28;20170;-85
2022/02/01 03:39:01;;;;;;;8.73;0.93;;;3.00;99.90;;;;;;5073809;28;20218;-85
2022/02/01 03:41:27;;;;;;;6.47;0.77;;;2.90;99.90;;;;;;5074223;28;20180;-85
2022/02/01 03:43:53;;;;;;;6.33;1.47;;;2.80;99.90;;;;;;5075331;28;20494;-84
2022/02/01 03:46:20;;;;;;;4.63;0.70;;;2.80;99.90;;;;;;5075203;28;20562;-85
2022/02/01 03:48:46;;;;;;;7.00;1.90;;;2.80;99.90;;;;;;5075363;28;20165;-84
2022/02/01 03:51:11;;;;;;;11.23;2.60;;;2.80;99.90;;;;;;5075223;28;20437;-85
2022/02/01 03:53:37;;;;;;;4.10;0.90;;;2.80;99.90;;;;;;5074788;28;20184;-85
2022/02/01 03:56:03;;;;;;;9.70;2.13;;;2.80;99.90;;;;;;5075136;28;20175;-85
2022/02/01 03:58:30;;;;;;;6.60;1.43;;;2.80;99.90;;;;;;5073865;28;20274;-85
2022/02/01 04:00:56;;;;;;;14.23;2.43;;;2.80;99.90;;;;;;5075013;28;20601;-85
2022/02/01 04:03:22;;;;;;;7.00;0.80;;;2.80;99.90;;;;;;5075023;28;20876;-86
2022/02/01 04:05:47;;;;;;;11.80;1.67;;;2.80;99.90;;;;;;5074814;28;20558;-86
2022/02/01 04:08:15;;;;;;;12.67;1.27;;;2.80;99.90;;;;;;5073593;28;20448;-86
2022/02/01 04:10:42;;;;;;;6.23;1.57;;;2.70;99.90;;;;;;5074867;28;20260;-86
2022/02/01 04:13:07;;;;;;;11.33;1.97;;;2.70;99.90;;;;;;5074902;28;20845;-86
2022/02/01 04:15:33;;;;;;;7.40;1.80;;;2.70;99.90;;;;;;5074711;28;20451;-87
2022/02/01 04:17:58;;;;;;;5.37;0.97;;;2.70;99.90;;;;;;5074790;28;20219;-85
2022/02/01 04:20:26;;;;;;;8.27;1.13;;;2.70;99.90;;;;;;5074741;28;20177;-85
2022/02/01 04:22:52;;;;;;;14.67;1.57;;;2.70;99.90;;;;;;5074306;28;20252;-84
2022/02/01 04:25:17;;;;;;;9.60;1.00;;;2.70;99.90;;;;;;5073226;28;20561;-85
2022/02/01 04:27:43;;;;;;;7.80;1.00;;;2.60;99.90;;;;;;5074622;28;20423;-85
2022/02/01 04:30:11;;;;;;;11.00;1.80;;;2.60;99.90;;;;;;5074462;28;20177;-84
2022/02/01 04:32:42;;;;;;;13.13;1.67;;;2.60;99.90;;;;;;5073139;28;20177;-84
2022/02/01 04:35:16;;;;;;;5.17;1.70;;;2.60;99.90;;;;;;5074340;28;20521;-84
2022/02/01 04:37:42;;;;;;;5.77;1.07;;;2.70;99.90;;;;;;5074480;28;20903;-84
2022/02/01 04:40:10;;;;;;;20.10;1.90;;;2.70;99.90;;;;;;5073979;28;20453;-84
2022/02/01 04:42:38;;;;;;;13.87;1.53;;;2.70;99.90;;;;;;5072622;28;20979;-84
2022/02/01 04:45:09;;;;;;;14.00;1.93;;;2.70;99.90;;;;;;5074072;28;20939;-84
2022/02/01 04:47:35;;;;;;;9.90;1.83;;;2.80;99.90;;;;;;5074135;28;20453;-84
2022/02/01 04:50:05;;;;;;;7.37;1.80;;;2.90;99.90;;;;;;5074069;28;20458;-85
2022/02/01 04:52:31;;;;;;;5.23;1.50;;;2.90;99.90;;;;;;5074081;28;20455;-83
2022/02/01 04:54:57;;;;;;;8.20;2.00;;;2.90;99.90;;;;;;5072286;28;20424;-84
2022/02/01 04:57:24;;;;;;;4.13;0.77;;;2.90;99.90;;;;;;5073900;28;20433;-84
2022/02/01 04:59:49;;;;;;;10.40;1.57;;;2.80;99.90;;;;;;5073908;28;20423;-85
2022/02/01 05:02:15;;;;;;;8.80;0.67;;;2.90;99.90;;;;;;5072524;28;20512;-84
2022/02/01 05:04:40;;;;;;;13.20;1.70;;;2.80;99.90;;;;;;5072368;28;20520;-84
2022/02/01 05:07:06;;;;;;;9.40;1.00;;;2.90;99.90;;;;;;5072438;28;20173;-84
2022/02/01 05:09:33;;;;;;;15.30;1.73;;;2.90;99.90;;;;;;5073429;28;20164;-84
2022/02/01 05:12:02;;;;;;;3.50;0.70;;;2.90;99.90;;;;;;5073695;28;20196;-84
2022/02/01 05:14:29;;;;;;;5.87;1.17;;;2.90;99.90;;;;;;5073572;28;20926;-84
2022/02/01 05:21:51;;;;;;;9.77;1.87;;;3.10;99.90;;;;;;5073430;28;20230;-85
2022/02/01 05:24:17;;;;;;;4.57;0.50;;;3.10;99.90;;;;;;5073059;28;20416;-85
2022/02/01 05:26:43;;;;;;;12.40;1.23;;;3.10;99.90;;;;;;5073344;28;20466;-85
2022/02/01 05:29:09;;;;;;;7.90;2.17;;;3.10;99.90;;;;;;5073278;28;20416;-84
2022/02/01 05:31:35;;;;;;;9.63;1.60;;;3.10;99.90;;;;;;5073323;28;20174;-84
2022/02/01 05:34:00;;;;;;;11.63;2.67;;;3.10;99.90;;;;;;5073321;28;20466;-86
2022/02/01 05:36:26;;;;;;;9.83;1.10;;;3.10;99.90;;;;;;5071909;28;20239;-86
2022/02/01 05:38:53;;;;;;;6.63;1.33;;;3.10;99.90;;;;;;5072932;28;20220;-86
2022/02/01 05:41:19;;;;;;;5.73;1.23;;;3.10;99.90;;;;;;5073006;28;20626;-85
2022/02/01 05:43:44;;;;;;;9.57;1.47;;;3.10;99.90;;;;;;5073097;28;20420;-85
2022/02/01 05:46:10;;;;;;;6.23;1.27;;;3.20;99.90;;;;;;5072945;28;20208;-84
2022/02/01 05:48:36;;;;;;;5.90;0.90;;;3.20;99.90;;;;;;5073205;28;20169;-86
2022/02/01 05:51:02;;;;;;;3.10;1.10;;;3.20;99.90;;;;;;5073458;28;20420;-86
2022/02/01 05:53:27;;;;;;;7.03;1.00;;;3.20;99.90;;;;;;5072802;28;20910;-86
2022/02/01 05:55:53;;;;;;;8.13;1.70;;;3.20;99.90;;;;;;5073086;28;20174;-85
2022/02/01 05:58:20;;;;;;;10.63;1.90;;;3.20;99.90;;;;;;5071795;28;20209;-85
2022/02/01 06:00:46;;;;;;;8.97;1.47;;;3.10;99.90;;;;;;5073067;28;20169;-84
2022/02/01 06:03:12;;;;;;;8.73;2.20;;;3.10;99.90;;;;;;5072896;28;20944;-83
2022/02/01 06:05:38;;;;;;;8.93;1.47;;;3.10;99.90;;;;;;5072701;28;20471;-84
2022/02/01 06:08:04;;;;;;;7.20;1.17;;;3.20;99.90;;;;;;5072562;28;20623;-84
2022/02/01 06:10:30;;;;;;;10.97;1.37;;;3.10;99.90;;;;;;5071453;28;20549;-85
2022/02/01 06:12:56;;;;;;;4.57;0.77;;;3.10;99.90;;;;;;5072754;28;20511;-84
2022/02/01 06:15:26;;;;;;;8.60;1.60;;;3.10;99.90;;;;;;5072475;28;20420;-85
2022/02/01 06:17:52;;;;;;;15.00;2.17;;;3.10;99.90;;;;;;5072112;28;20413;-83
2022/02/01 06:20:18;;;;;;;7.33;2.60;;;3.10;99.90;;;;;;5071416;28;20415;-85
2022/02/01 06:22:43;;;;;;;5.80;0.97;;;3.10;99.90;;;;;;5071486;28;20411;-84
2022/02/01 06:25:10;;;;;;;8.00;1.13;;;3.20;99.90;;;;;;5072374;28;20448;-84
2022/02/01 06:27:37;;;;;;;8.60;1.27;;;3.10;99.90;;;;;;5072766;28;20209;-86
2022/02/01 06:30:04;;;;;;;8.77;1.87;;;3.10;99.90;;;;;;5072696;28;20761;-87
2022/02/01 06:32:34;;;;;;;1.90;0.50;;;3.20;99.90;;;;;;5075628;28;20514;-86
2022/02/01 06:35:00;;;;;;;2.80;0.80;;;3.20;99.90;;;;;;5076842;28;20499;-87
2022/02/01 06:37:25;;;;;;;4.63;0.90;;;3.20;99.90;;;;;;5076514;28;20964;-84
2022/02/01 06:39:51;;;;;;;4.73;1.17;;;3.20;99.90;;;;;;5076649;28;20186;-86
2022/02/01 06:42:17;;;;;;;4.53;1.17;;;3.20;99.90;;;;;;5076787;28;20714;-87
2022/02/01 06:44:43;;;;;;;4.27;1.00;;;3.20;99.90;;;;;;5076462;28;20211;-85
2022/02/01 06:47:08;;;;;;;6.33;1.00;;;3.20;99.90;;;;;;5075150;28;20233;-85
2022/02/01 06:49:34;;;;;;;9.20;1.77;;;3.20;99.90;;;;;;5076549;28;20803;-86
2022/02/01 06:52:01;;;;;;;9.00;1.50;;;3.30;99.90;;;;;;5076388;28;20253;-85
2022/02/01 06:54:27;;;;;;;10.17;1.00;;;3.30;99.90;;;;;;5075841;28;20169;-85
2022/02/01 06:56:52;;;;;;;3.50;1.60;;;3.20;99.90;;;;;;5076323;28;20502;-85
2022/02/01 06:59:18;;;;;;;10.37;1.40;;;3.30;99.90;;;;;;5076322;28;20812;-87
2022/02/01 07:01:43;;;;;;;7.40;0.77;;;3.30;99.90;;;;;;5076117;28;20185;-84
2022/02/01 07:04:09;;;;;;;4.87;0.63;;;3.30;99.90;;;;;;5074715;28;20673;-85
2022/02/01 07:06:35;;;;;;;9.23;1.10;;;3.20;99.90;;;;;;5075966;28;20213;-85
2022/02/01 07:09:02;;;;;;;8.83;1.40;;;3.30;99.90;;;;;;5075603;28;20200;-85
2022/02/01 07:11:28;;;;;;;18.13;1.70;;;3.20;99.90;;;;;;5076121;28;20549;-85
2022/02/01 07:13:54;;;;;;;7.13;0.67;;;3.20;99.90;;;;;;5075894;28;20492;-86
2022/02/01 07:16:20;;;;;;;17.10;1.90;;;3.20;99.90;;;;;;5075825;28;20871;-85
2022/02/01 07:18:46;;;;;;;6.67;0.80;;;3.20;99.90;;;;;;5075812;28;20166;-85
2022/02/01 07:21:12;;;;;;;8.13;1.07;;;3.20;99.90;;;;;;5076031;28;20417;-84
2022/02/01 07:23:39;;;;;;;12.27;1.47;;;3.30;99.90;;;;;;5075664;28;20653;-84
2022/02/01 07:26:07;;;;;;;8.57;1.13;;;3.40;99.90;;;;;;5074490;28;20472;-84
2022/02/01 07:28:32;;;;;;;7.30;0.87;;;3.40;99.90;;;;;;5075807;28;20399;-84
2022/02/01 07:30:59;;;;;;;9.23;1.93;;;3.40;99.90;;;;;;5075689;28;20772;-83
2022/02/01 07:33:26;;;;;;;7.50;1.70;;;3.40;99.90;;;;;;5075842;28;20174;-84
2022/02/01 07:35:52;;;;;;;6.23;1.20;;;3.50;99.90;;;;;;5075666;28;20415;-83
2022/02/01 07:38:21;;;;;;;5.53;1.30;;;3.50;99.90;;;;;;5075145;28;20892;-83
2022/02/01 07:40:48;;;;;;;5.30;1.37;;;3.50;99.90;;;;;;5075166;28;20415;-84
2022/02/01 07:43:15;;;;;;;5.67;1.27;;;3.60;99.90;;;;;;5075161;28;20455;-84
2022/02/01 07:45:42;;;;;;;6.93;0.80;;;3.60;99.90;;;;;;5075172;28;20482;-82
2022/02/01 07:48:08;;;;;;;5.23;0.80;;;3.70;99.90;;;;;;5075552;28;20513;-84
2022/02/01 07:50:36;;;;;;;5.13;1.00;;;3.70;99.90;;;;;;5075441;28;20420;-84
2022/02/01 07:53:03;;;;;;;3.80;0.77;;;3.70;99.90;;;;;;5074914;28;20160;-84
2022/02/01 07:55:28;;;;;;;6.63;1.30;;;3.80;99.90;;;;;;5075285;28;20930;-84
2022/02/01 07:57:54;;;;;;;7.93;0.87;;;3.80;99.90;;;;;;5075468;28;20417;-84
2022/02/01 08:00:19;;;;;;;3.40;0.97;;;3.80;99.90;;;;;;5075337;28;20176;-84
2022/02/01 08:02:45;;;;;;;6.80;0.70;;;3.80;99.90;;;;;;5075137;28;20173;-87
2022/02/01 08:05:11;;;;;;;5.43;0.97;;;3.80;99.90;;;;;;5075391;28;20258;-86
2022/02/01 08:07:37;;;;;;;12.43;2.60;;;3.70;99.90;;;;;;5074895;28;20225;-86
2022/02/01 08:10:06;;;;;;;7.57;1.80;;;3.70;99.90;;;;;;5075055;28;20778;-83
2022/02/01 08:13:44;;;;;;;8.97;1.73;;;3.70;99.90;;;;;;5073734;28;20419;-86
2022/02/01 08:20:36;;;;;;;3.63;1.07;;;3.70;99.90;;;;;;5075717;28;20766;-88
2022/02/01 08:23:02;;;;;;;3.50;0.87;;;3.70;99.90;;;;;;5076014;28;20415;-88
2022/02/01 08:25:30;;;;;;;5.47;1.73;;;3.80;99.90;;;;;;5075013;28;21055;-88
2022/02/01 08:27:57;;;;;;;1.93;0.53;;;3.80;99.90;;;;;;5074996;28;20415;-88
2022/02/01 08:30:23;;;;;;;2.90;1.00;;;3.90;99.90;;;;;;5078593;28;20828;-88
2022/02/01 08:32:49;;;;;;;6.97;1.00;;;3.90;99.90;;;;;;5076542;28;20470;-87
2022/02/01 08:35:16;;;;;;;3.83;0.53;;;3.90;99.90;;;;;;5076129;28;20415;-87
2022/02/01 08:37:42;;;;;;;6.67;0.77;;;3.90;99.90;;;;;;5075210;28;20793;-87
2022/02/01 08:40:08;;;;;;;7.30;2.47;;;3.90;99.90;;;;;;5076126;28;20785;-87
2022/02/01 08:42:34;;;;;;;4.50;0.80;;;3.90;99.90;;;;;;5074481;28;21065;-87
2022/02/01 08:45:02;;;;;;;7.40;1.37;;;3.90;99.90;;;;;;5074190;28;20473;-86
2022/02/01 08:47:27;;;;;;;4.97;1.43;;;4.00;99.90;;;;;;5076285;28;20520;-87
2022/02/01 08:49:53;;;;;;;5.87;0.83;;;4.00;99.90;;;;;;5078943;28;20450;-86
2022/02/01 08:52:33;;;;;;;9.83;1.37;;;4.00;99.90;;;;;;5084930;28;20201;-88
2022/02/01 08:55:01;;;;;;;7.90;1.00;;;4.00;99.90;;;;;;5084495;28;20193;-88
2022/02/01 08:57:28;;;;;;;7.27;1.60;;;4.00;99.90;;;;;;5084322;28;20416;-87
2022/02/01 08:59:59;;;;;;;9.17;2.10;;;4.00;99.90;;;;;;5080307;28;20941;-88
2022/02/01 09:02:27;;;;;;;6.90;1.60;;;4.10;99.90;;;;;;5083472;28;20565;-87
2022/02/01 09:04:56;;;;;;;9.17;2.57;;;4.10;99.90;;;;;;5083448;28;22366;-87
2022/02/01 09:07:22;;;;;;;12.67;4.10;;;4.10;99.90;;;;;;5082621;28;20437;-88
2022/02/01 09:09:48;;;;;;;17.17;4.13;;;4.20;99.90;;;;;;5085994;28;20490;-87
2022/02/01 09:12:16;;;;;;;13.80;4.07;;;4.20;99.90;;;;;;5085937;28;20772;-87
2022/02/01 09:14:44;;;;;;;10.20;4.90;;;4.30;99.90;;;;;;5089028;28;20435;-87
2022/02/01 09:17:10;;;;;;;6.30;3.03;;;4.30;99.90;;;;;;5078652;28;20494;-85
2022/02/01 09:19:35;;;;;;;12.33;4.00;;;4.40;99.90;;;;;;5078781;28;20411;-83
2022/02/01 09:22:05;;;;;;;18.10;5.17;;;4.30;99.90;;;;;;5080310;28;20423;-83
2022/02/01 09:24:30;;;;;;;8.97;4.70;;;4.40;99.90;;;;;;5078458;28;20411;-85
2022/02/01 09:26:56;;;;;;;10.23;3.57;;;4.40;99.90;;;;;;5080359;28;20814;-86
2022/02/01 09:29:23;;;;;;;9.63;4.23;;;4.40;99.90;;;;;;5083934;28;20196;-88
2022/02/01 09:31:50;;;;;;;8.60;3.20;;;4.40;99.90;;;;;;5075802;28;20423;-86
2022/02/01 09:34:16;;;;;;;9.00;4.07;;;4.50;99.90;;;;;;5079548;28;20418;-89
2022/02/01 09:36:42;;;;;;;9.73;3.70;;;4.40;99.90;;;;;;5075753;28;20412;-87
2022/02/01 09:39:08;;;;;;;10.27;3.40;;;4.50;99.90;;;;;;5074806;28;20423;-85
2022/02/01 09:41:38;;;;;;;11.80;3.27;;;4.50;99.90;;;;;;5074931;28;20948;-87
2022/02/01 09:44:04;;;;;;;8.90;4.60;;;4.60;99.90;;;;;;5075276;28;20262;-87
2022/02/01 09:46:30;;;;;;;13.60;3.60;;;4.50;99.90;;;;;;5073721;28;20621;-87
2022/02/01 09:48:56;;;;;;;5.30;2.73;;;4.50;99.90;;;;;;5073774;28;20414;-86
2022/02/01 09:51:22;;;;;;;11.80;4.87;;;4.50;99.90;;;;;;5073487;28;20426;-86
2022/02/01 09:53:48;;;;;;;5.13;2.07;;;4.50;99.90;;;;;;5073143;28;20415;-87
2022/02/01 09:56:15;;;;;;;6.67;2.30;;;4.40;99.90;;;;;;5073325;28;20179;-86
2022/02/01 09:58:41;;;;;;;7.93;2.87;;;4.30;99.90;;;;;;5073246;28;20651;-84
2022/02/01 10:01:18;;;;;;;4.63;2.53;;;4.30;99.90;;;;;;5073261;28;20974;-84
2022/02/01 10:03:46;;;;;;;5.57;2.60;;;4.30;99.90;;;;;;5073004;28;20403;-86
2022/02/01 10:06:17;;;;;;;9.93;2.60;;;4.20;99.90;;;;;;5072191;28;20505;-86
2022/02/01 10:08:46;;;;;;;5.13;2.23;;;4.20;99.90;;;;;;5072616;28;20420;-86
2022/02/01 10:11:13;;;;;;;5.10;1.40;;;4.20;99.90;;;;;;5073001;28;20989;-85
2022/02/01 10:13:40;;;;;;;5.00;1.70;;;4.20;99.90;;;;;;5073024;28;20960;-86
2022/02/01 10:16:17;;;;;;;6.60;2.13;;;4.10;99.90;;;;;;5073120;28;20791;-91
2022/02/01 10:18:42;;;;;;;3.73;0.90;;;4.10;99.90;;;;;;5072018;28;20414;-84
2022/02/01 10:21:13;;;;;;;5.27;2.03;;;4.10;99.90;;;;;;5071651;28;20411;-86
2022/02/01 10:23:41;;;;;;;2.70;1.30;;;4.10;99.90;;;;;;5072918;28;20252;-86
2022/02/01 10:26:08;;;;;;;1.73;0.60;;;4.10;99.90;;;;;;5071680;28;20493;-87
2022/02/01 10:28:36;;;;;;;5.73;1.30;;;4.00;99.90;;;;;;5072750;28;20416;-85
2022/02/01 10:31:28;;;;;;;5.13;1.63;;;4.00;99.90;;;;;;5071489;28;20424;-86
2022/02/01 10:34:01;;;;;;;2.13;1.53;;;4.00;99.90;;;;;;5071720;28;20943;-86
2022/02/01 10:36:37;;;;;;;7.10;1.60;;;4.10;99.90;;;;;;5072682;28;20399;-86
2022/02/01 10:39:05;;;;;;;3.50;1.37;;;4.00;99.90;;;;;;5072222;28;20450;-86
2022/02/01 10:41:31;;;;;;;5.10;1.57;;;4.00;99.90;;;;;;5071090;28;20464;-85
2022/02/01 10:43:57;;;;;;;6.50;1.53;;;4.00;99.90;;;;;;5072698;28;20776;-86
2022/02/01 10:46:25;;;;;;;5.73;1.50;;;4.00;99.90;;;;;;5072379;28;20559;-86
2022/02/01 10:48:54;;;;;;;4.00;1.23;;;4.00;99.90;;;;;;5072379;28;20421;-85
2022/02/01 10:51:21;;;;;;;6.27;1.30;;;4.00;99.90;;;;;;5072590;28;20422;-85
2022/02/01 10:53:48;;;;;;;2.10;0.93;;;4.00;99.90;;;;;;5072218;28;20415;-87
2022/02/01 10:56:19;;;;;;;4.80;1.53;;;4.00;99.90;;;;;;5071296;28;20514;-85
2022/02/01 10:58:46;;;;;;;1.77;1.40;;;4.10;99.90;;;;;;5072439;28;20423;-86
2022/02/01 11:01:12;;;;;;;3.43;1.03;;;4.00;99.90;;;;;;5071120;28;20464;-87
2022/02/01 11:03:44;;;;;;;5.13;2.10;;;4.10;99.90;;;;;;5072441;28;20416;-85
2022/02/01 11:06:11;;;;;;;4.27;1.97;;;4.10;99.90;;;;;;5072366;28;20821;-86
2022/02/01 11:08:39;;;;;;;4.10;1.03;;;4.00;99.90;;;;;;5072135;28;20419;-86
2022/02/01 11:11:06;;;;;;;2.93;0.73;;;4.10;99.90;;;;;;5071165;28;20423;-86
2022/02/01 11:13:44;;;;;;;1.93;1.00;;;4.10;99.90;;;;;;5072215;28;20411;-85
2022/02/01 11:16:13;;;;;;;2.77;1.07;;;4.10;99.90;;;;;;5072447;28;20403;-85
2022/02/01 11:18:39;;;;;;;2.77;0.77;;;4.20;99.90;;;;;;5073821;28;20426;-86
2022/02/01 11:21:13;;;;;;;2.83;1.27;;;4.20;99.90;;;;;;5075833;28;20411;-86
2022/02/01 11:23:51;;;;;;;1.50;1.20;;;4.10;99.90;;;;;;5075553;28;20181;-86
2022/02/01 11:26:25;;;;;;;1.97;0.90;;;4.20;99.90;;;;;;5074619;28;20486;-87
2022/02/01 11:31:50;;;;;;;1.67;0.40;;;4.30;99.90;;;;;;5075935;28;20415;-85
2022/02/01 11:34:28;;;;;;;1.90;1.07;;;4.40;99.90;;;;;;5074116;28;20419;-84
2022/02/01 11:37:03;;;;;;;1.90;0.73;;;4.40;99.90;;;;;;5075321;28;20419;-85
2022/02/01 11:39:30;;;;;;;2.40;1.07;;;4.40;99.90;;;;;;5074335;28;20425;-85
2022/02/01 11:41:57;;;;;;;1.83;0.70;;;4.40;99.90;;;;;;5075359;28;20457;-85
2022/02/01 11:44:29;;;;;;;4.33;0.70;;;4.40;99.90;;;;;;5074983;28;20805;-84
2022/02/01 11:47:09;;;;;;;1.33;0.73;;;4.50;99.90;;;;;;5074012;28;20643;-84
2022/02/01 11:49:48;;;;;;;3.70;1.67;;;4.70;99.90;;;;;;5074033;28;20407;-83
2022/02/01 11:52:14;;;;;;;1.93;0.63;;;4.60;99.90;;;;;;5073671;28;20431;-84
2022/02/01 11:54:45;;;;;;;4.10;0.80;;;4.70;99.90;;;;;;5075246;28;20399;-84
2022/02/01 11:57:18;;;;;;;2.23;0.90;;;4.70;99.90;;;;;;5073869;28;20454;-84
2022/02/01 11:59:56;;;;;;;2.30;1.13;;;4.70;99.90;;;;;;5073850;28;20416;-84
2022/02/01 12:02:38;;;;;;;1.27;0.57;;;4.80;99.90;;;;;;5073823;28;20427;-84
2022/02/01 12:05:10;;;;;;;1.90;0.80;;;4.80;99.90;;;;;;5075126;28;20485;-85
2022/02/01 12:07:46;;;;;;;1.13;0.97;;;4.80;99.90;;;;;;5074564;28;20442;-83
2022/02/01 12:10:13;;;;;;;4.43;0.83;;;4.80;99.90;;;;;;5075066;28;20911;-84
2022/02/01 12:12:39;;;;;;;2.57;1.33;;;4.80;99.90;;;;;;5074864;28;20413;-83
2022/02/01 12:15:05;;;;;;;1.40;1.10;;;4.80;99.90;;;;;;5073691;28;20848;-84
2022/02/01 12:17:35;;;;;;;2.37;0.83;;;4.90;99.90;;;;;;5074807;28;20215;-83
2022/02/01 12:20:04;;;;;;;2.07;0.80;;;4.90;99.90;;;;;;5073578;28;20183;-84
2022/02/01 12:22:36;;;;;;;4.07;1.10;;;4.90;99.90;;;;;;5074472;28;20506;-84
2022/02/01 12:25:04;;;;;;;2.17;1.20;;;5.00;99.90;;;;;;5074679;28;20446;-85
2022/02/01 12:27:47;;;;;;;2.43;1.20;;;5.00;99.90;;;;;;5074575;28;20415;-84
2022/02/01 12:30:13;;;;;;;2.40;1.47;;;5.10;99.90;;;;;;5073780;28;20397;-84
2022/02/01 12:32:50;;;;;;;2.40;1.50;;;5.10;99.90;;;;;;5073377;28;20423;-85
2022/02/01 12:35:16;;;;;;;2.80;1.00;;;5.30;99.90;;;;;;5073509;28;20645;-86
2022/02/01 12:37:41;;;;;;;1.53;0.73;;;5.30;99.90;;;;;;5074293;28;20409;-86
2022/02/01 12:40:12;;;;;;;2.40;1.33;;;5.30;99.90;;;;;;5073416;28;20173;-86
2022/02/01 12:42:50;;;;;;;4.23;1.50;;;5.30;99.90;;;;;;5073333;28;20603;-86
2022/02/01 12:48:02;;;;;;;3.07;1.40;;;5.40;99.90;;;;;;5074487;28;20465;-87
2022/02/01 12:50:27;;;;;;;3.00;1.30;;;5.50;99.90;;;;;;5072997;28;20457;-86
2022/02/01 12:52:58;;;;;;;2.90;1.27;;;5.50;99.90;;;;;;5072706;28;20806;-86
2022/02/01 12:55:25;;;;;;;2.43;1.17;;;5.60;99.90;;;;;;5072965;28;20204;-86
2022/02/01 12:57:52;;;;;;;2.27;1.23;;;5.60;99.90;;;;;;5074075;28;20416;-87
2022/02/01 13:00:20;;;;;;;2.63;1.93;;;5.70;99.90;;;;;;5072761;28;20411;-86
2022/02/01 13:02:46;;;;;;;3.33;1.47;;;5.70;99.90;;;;;;5072998;28;20416;-86
2022/02/01 13:05:17;;;;;;;2.07;0.90;;;5.80;99.90;;;;;;5073979;28;20498;-87
2022/02/01 13:07:57;;;;;;;2.97;1.37;;;6.00;99.90;;;;;;5073726;28;20464;-86
2022/02/01 13:14:23;;;;;;;3.30;1.53;;;5.90;99.90;;;;;;5074232;28;20452;-87
2022/02/01 13:16:41;;;;;;;4.10;1.47;;;5.90;99.90;;;;;;5073753;28;20759;-86
2022/02/01 13:21:40;;;;;;;4.00;2.00;;;6.00;99.90;;;;;;5073573;28;20476;-88
2022/02/01 13:24:06;;;;;;;2.77;1.20;;;6.00;99.90;;;;;;5072431;28;20408;-87
2022/02/01 13:26:34;;;;;;;2.40;0.60;;;6.10;99.90;;;;;;5073627;28;20561;-86
2022/02/01 13:29:11;;;;;;;2.70;1.40;;;6.10;99.90;;;;;;5072198;28;20418;-86
2022/02/01 13:31:46;;;;;;;3.70;1.43;;;6.20;99.90;;;;;;5072286;28;20422;-86
2022/02/01 13:34:13;;;;;;;3.17;1.00;;;6.20;99.90;;;;;;5073509;28;20407;-85
2022/02/01 13:36:52;;;;;;;2.70;1.73;;;6.20;99.90;;;;;;5071848;28;20435;-85
2022/02/01 13:39:23;;;;;;;3.20;1.17;;;6.30;99.90;;;;;;5073009;28;20743;-87
2022/02/01 13:42:02;;;;;;;4.30;0.50;;;6.40;99.90;;;;;;5072994;28;20474;-86
2022/02/01 13:44:31;;;;;;;3.40;1.00;;;6.40;99.90;;;;;;5072234;28;20432;-86
2022/02/01 13:47:01;;;;;;;9.90;1.40;;;6.40;99.90;;;;;;5072118;28;20474;-87
2022/02/01 13:49:27;;;;;;;7.73;1.53;;;6.50;99.90;;;;;;5073375;28;20422;-87
2022/02/01 13:51:56;;;;;;;4.37;1.43;;;6.50;99.90;;;;;;5072915;28;20919;-87
2022/02/01 13:54:22;;;;;;;7.80;1.80;;;6.50;99.90;;;;;;5073407;28;20416;-87
2022/02/01 13:56:50;;;;;;;1.73;1.10;;;6.50;99.90;;;;;;5073318;28;20416;-86
2022/02/01 13:59:21;;;;;;;5.67;0.80;;;6.60;99.90;;;;;;5072995;28;20423;-86
2022/02/01 14:01:48;;;;;;;6.30;1.07;;;6.60;99.90;;;;;;5073182;28;20502;-86
2022/02/01 14:04:23;;;;;;;3.53;1.43;;;6.60;99.90;;;;;;5073127;28;20411;-85
2022/02/01 14:07:04;;;;;;;2.00;0.77;;;6.60;99.90;;;;;;5071362;28;20502;-86
2022/02/01 14:14:50;;;;;;;6.20;2.33;;;6.60;99.90;;;;;;5073044;28;20419;-85
2022/02/01 14:25:41;;;;;;;11.83;1.80;;;6.80;99.90;;;;;;5072777;28;20481;-85
2022/02/01 14:28:22;;;;;;;9.10;1.23;;;6.80;99.90;;;;;;5072815;28;20418;-85
2022/02/01 14:36:11;;;;;;;12.43;2.50;;;6.90;99.90;;;;;;5073242;28;20447;-87
2022/02/01 14:38:58;;;;;;;6.53;1.30;;;6.90;99.90;;;;;;5083561;28;20563;-86
2022/02/01 14:44:30;;;;;;;10.90;2.90;;;7.00;99.90;;;;;;5073480;28;20443;-85
2022/02/01 14:46:56;;;;;;;11.77;2.43;;;7.00;99.90;;;;;;5072649;28;21024;-85
2022/02/01 14:49:24;;;;;;;16.00;3.13;;;6.90;99.90;;;;;;5072491;28;20487;-85